Kerikeri/Bay of Islands (NZKK)

Aerodrome — Elev 492
New Zealand
S035.15.46.001 E173.54.42.998
Loading chart...

Current Weather

NZKK 190230Z 10005KT 060V130 19KM BKN009 14/13 Q1011 RMK AUTO VATSIM USE ONLY

Published 39 minutes ago

Airport Activity

Loading chart...
Loading chart...

Standard ATC Positions

CallsignRadio Name / Freq / Voice Room / TypeFrequencyType
NZAA_CTR Auckland Control
123.900
nzaa_ctr
123.900
UNICOM NZZC UNICOM
122.800
unicom_nzzc
122.800

Event ATC Positions

This airport has additional control positions that are designated for use only during major events.
These non-standard positions must not be staffed unless specifically activated by the VATNZ Airspace Director as part of an official VATNZ event.
At all other times, controllers should use the designated Standard ATC Positions.

CallsignRadio Name / Freq / Voice Room / TypeFrequencyType
NZAA-R_CTR Auckland Control (Raglan)
126.000
nzaa-r_ctr
126.000
NZCH-D_CTR Christchurch Director
129.200
nzch-d_ctr
129.200
NZAA_DEP Auckland Approach
129.600
nzaa_dep
129.600

Charts